Time;durP1;ratioP1;P1;durP2;ratioP2;P2;SDS_P1;SDS_P2;PMS_P1;PMS_P2;Temp;Humidity;BMP_temperature;BMP_pressure;BME280_temperature;BME280_humidity;BME280_pressure;Samples;Min_cycle;Max_cycle;Signal;HPM_P1;HPM_P2
2023/09/06 00:03:50;;;;;;;4.38;2.55;;;;;;;16.53;55.57;98461.53;10447441;28;20060;-83
2023/09/06 00:09:12;;;;;;;4.43;2.55;;;;;;;16.51;55.46;98455.78;10430758;28;20048;-84
2023/09/06 00:14:32;;;;;;;4.97;2.60;;;;;;;16.48;55.37;98449.28;10416772;28;20513;-82
2023/09/06 00:19:53;;;;;;;3.58;2.25;;;;;;;16.43;55.30;98438.44;10441011;28;20045;-82
2023/09/06 00:25:15;;;;;;;4.35;2.47;;;;;;;16.40;55.31;98437.56;10423898;28;20521;-82
2023/09/06 00:30:36;;;;;;;5.35;2.60;;;;;;;16.40;55.53;98434.00;10409035;28;20152;-83
2023/09/06 00:35:58;;;;;;;3.97;2.13;;;;;;;16.33;55.49;98432.97;10409765;28;20691;-81
2023/09/06 00:41:20;;;;;;;5.43;2.80;;;;;;;16.23;55.62;98438.75;10395026;28;20542;-79
2023/09/06 00:46:41;;;;;;;4.10;2.40;;;;;;;16.08;56.73;98444.94;10406661;28;20040;-81
2023/09/06 00:52:01;;;;;;;3.60;2.40;;;;;;;15.86;56.33;98435.22;10408545;28;20446;-81
2023/09/06 00:57:22;;;;;;;5.07;2.88;;;;;;;15.66;56.41;98441.13;10394846;28;20033;-81
2023/09/06 01:02:45;;;;;;;3.92;2.47;;;;;;;15.48;56.88;98442.09;10408830;28;20053;-80
2023/09/06 01:08:07;;;;;;;4.30;2.40;;;;;;;15.38;57.33;98437.34;10412339;28;20051;-79
2023/09/06 01:13:28;;;;;;;3.53;2.17;;;;;;;15.30;57.62;98436.84;10408609;28;20424;-79
2023/09/06 01:18:49;;;;;;;3.90;2.35;;;;;;;15.24;57.87;98418.88;10401038;28;20045;-81
2023/09/06 01:24:09;;;;;;;4.30;2.22;;;;;;;15.15;58.38;98426.84;10400606;28;20068;-79
2023/09/06 01:29:30;;;;;;;6.78;2.47;;;;;;;15.12;58.42;98416.78;10410402;28;20029;-79
2023/09/06 01:34:52;;;;;;;3.67;2.28;;;;;;;15.10;58.59;98419.50;10398966;28;20047;-78
2023/09/06 01:40:17;;;;;;;3.97;2.15;;;;;;;15.10;58.73;98427.19;10412197;28;20045;-78
2023/09/06 01:45:51;;;;;;;3.40;2.47;;;;;;;14.99;59.23;98433.53;10406809;28;20041;-78
2023/09/06 01:51:15;;;;;;;4.50;2.50;;;;;;;14.89;59.56;98430.84;10402683;28;20041;-80
2023/09/06 01:56:37;;;;;;;6.38;2.97;;;;;;;14.76;58.68;98437.03;10408214;28;20041;-77
2023/09/06 02:01:58;;;;;;;5.95;2.83;;;;;;;14.65;60.07;98434.94;10399808;28;20057;-77
2023/09/06 02:07:19;;;;;;;4.07;2.60;;;;;;;14.59;60.53;98444.47;10401710;28;20049;-78
2023/09/06 02:12:40;;;;;;;5.05;2.72;;;;;;;14.52;60.72;98431.38;10400878;28;20052;-79
2023/09/06 02:18:01;;;;;;;4.93;2.80;;;;;;;14.46;60.63;98433.81;10401581;28;20553;-78
2023/09/06 02:23:22;;;;;;;4.53;3.00;;;;;;;14.42;61.07;98427.91;10392034;28;20041;-78
2023/09/06 02:28:43;;;;;;;5.20;2.90;;;;;;;14.36;61.37;98424.72;10406740;28;20041;-78
2023/09/06 02:34:05;;;;;;;4.32;2.72;;;;;;;14.21;61.71;98427.97;10395210;28;20041;-79
2023/09/06 02:39:26;;;;;;;5.38;2.90;;;;;;;14.13;61.94;98438.66;10436489;28;20042;-77
2023/09/06 02:44:47;;;;;;;8.23;3.22;;;;;;;14.11;62.57;98432.94;10421847;28;20042;-78
2023/09/06 02:50:11;;;;;;;4.43;2.80;;;;;;;13.99;62.50;98427.25;10405385;28;20045;-78
2023/09/06 02:55:35;;;;;;;7.97;2.83;;;;;;;13.94;62.80;98437.47;10406181;28;20426;-78
2023/09/06 03:00:57;;;;;;;4.68;2.75;;;;;;;13.86;63.25;98434.16;10418021;28;20053;-78
2023/09/06 03:06:32;;;;;;;3.65;2.55;;;;;;;13.88;63.67;98442.69;10404832;28;20057;-78
2023/09/06 03:11:55;;;;;;;6.78;3.13;;;;;;;13.84;63.91;98438.91;10409012;28;20050;-78
2023/09/06 03:17:18;;;;;;;4.45;3.15;;;;;;;13.87;64.24;98443.28;10405677;28;20052;-78
2023/09/06 03:22:42;;;;;;;4.03;2.83;;;;;;;13.83;64.57;98451.47;10403165;28;20108;-78
2023/09/06 03:28:04;;;;;;;9.27;3.50;;;;;;;13.82;64.75;98458.41;10404398;28;20071;-78
2023/09/06 03:33:26;;;;;;;4.70;2.88;;;;;;;13.83;65.11;98452.19;10432354;28;20072;-78
2023/09/06 03:38:47;;;;;;;5.88;3.00;;;;;;;13.78;64.92;98447.63;10391315;28;20037;-78
2023/09/06 03:44:08;;;;;;;4.30;2.83;;;;;;;13.75;65.49;98454.47;10433688;28;20044;-77
2023/09/06 03:49:29;;;;;;;7.78;3.20;;;;;;;13.72;65.52;98453.59;10405845;28;20042;-79
2023/09/06 03:54:51;;;;;;;5.63;3.00;;;;;;;13.72;65.56;98444.44;10400309;28;20046;-78
2023/09/06 04:00:23;;;;;;;5.45;2.97;;;;;;;13.73;65.80;98446.66;10377489;28;20037;-79
2023/09/06 04:05:57;;;;;;;4.68;3.05;;;;;;;13.71;65.70;98454.94;10436436;28;20053;-78
2023/09/06 04:11:19;;;;;;;5.22;3.30;;;;;;;13.61;66.27;98457.06;10421839;28;20049;-77
2023/09/06 04:16:40;;;;;;;4.60;2.53;;;;;;;13.59;66.39;98465.31;10444957;28;20044;-79
2023/09/06 04:22:02;;;;;;;4.90;3.25;;;;;;;13.62;66.52;98474.63;10405713;28;20045;-79
2023/09/06 04:27:28;;;;;;;3.97;2.55;;;;;;;13.71;66.51;98476.66;10411325;28;20040;-74
2023/09/06 04:32:51;;;;;;;4.43;2.63;;;;;;;13.76;66.91;98475.56;10409270;28;20037;-74
2023/09/06 04:38:14;;;;;;;5.93;3.65;;;;;;;13.79;67.06;98465.94;10424349;28;20379;-74
2023/09/06 04:43:36;;;;;;;;;;;;;;;13.82;67.63;98481.59;10399041;28;20119;-74
2023/09/06 04:48:58;;;;;;;6.25;3.78;;;;;;;14.04;67.42;98474.63;10430473;28;19921;-74
2023/09/06 04:54:19;;;;;;;7.15;3.92;;;;;;;14.50;67.22;98472.66;10446519;28;20068;-74
2023/09/06 04:59:40;;;;;;;8.27;4.80;;;;;;;15.07;67.47;98482.56;10428537;28;20513;-73
2023/09/06 05:05:00;;;;;;;9.60;4.70;;;;;;;15.80;66.72;98486.25;10427212;28;20132;-74
2023/09/06 05:10:21;;;;;;;6.15;3.67;;;;;;;16.47;65.64;98492.19;10408637;28;20124;-73
2023/09/06 05:15:42;;;;;;;6.88;4.45;;;;;;;20.26;62.27;98495.19;10400671;28;20506;-74
2023/09/06 05:21:05;;;;;;;6.32;4.75;;;;;;;26.18;51.96;98497.13;10410654;28;20052;-75
2023/09/06 05:26:28;;;;;;;8.73;4.80;;;;;;;30.01;45.43;98498.84;10426482;28;20399;-75
2023/09/06 05:31:50;;;;;;;9.00;4.70;;;;;;;32.11;37.46;98499.19;10441372;28;20555;-76
2023/09/06 05:37:11;;;;;;;9.35;4.43;;;;;;;34.76;33.27;98504.84;10440819;28;20151;-76
2023/09/06 05:42:32;;;;;;;11.40;4.43;;;;;;;35.88;27.94;98502.69;10409989;28;20073;-76
2023/09/06 05:47:53;;;;;;;8.70;3.47;;;;;;;37.76;24.62;98508.09;10436521;28;20123;-76
2023/09/06 05:53:15;;;;;;;8.07;3.42;;;;;;;39.45;21.52;98508.34;10424423;28;20494;-78
2023/09/06 05:58:38;;;;;;;7.07;3.55;;;;;;;40.15;19.09;98514.50;10440630;28;20076;-78
2023/09/06 06:04:00;;;;;;;5.88;3.72;;;;;;;42.08;17.64;98523.72;10440569;28;20183;-79
2023/09/06 06:09:24;;;;;;;4.72;3.53;;;;;;;43.00;16.93;98516.28;10413096;28;20079;-78
2023/09/06 06:14:45;;;;;;;5.30;3.60;;;;;;;44.37;15.44;98518.41;10427626;28;20076;-79
2023/09/06 06:20:07;;;;;;;5.88;3.75;;;;;;;46.15;14.12;98521.59;10441022;28;20514;-80
2023/09/06 06:25:31;;;;;;;4.30;2.97;;;;;;;48.46;11.36;98515.16;10441332;28;20048;-79
2023/09/06 06:30:51;;;;;;;6.13;2.78;;;;;;;51.48;9.69;98506.94;10455444;28;20069;-80
2023/09/06 06:36:12;;;;;;;11.77;3.40;;;;;;;53.33;8.26;98507.09;10427015;28;20064;-82
2023/09/06 06:41:33;;;;;;;3.30;2.47;;;;;;;54.07;6.66;98505.97;10426291;28;20557;-78
2023/09/06 06:46:54;;;;;;;4.97;2.42;;;;;;;53.71;7.09;98507.94;10426227;28;20102;-80
2023/09/06 06:52:14;;;;;;;5.15;3.00;;;;;;;54.93;6.40;98516.66;10439759;28;20069;-79
2023/09/06 06:57:35;;;;;;;4.95;2.58;;;;;;;55.79;5.93;98511.41;10432781;28;20116;-80
2023/09/06 07:02:56;;;;;;;4.97;2.80;;;;;;;56.78;5.22;98496.84;10433459;28;20111;-80
2023/09/06 07:08:17;;;;;;;7.10;2.83;;;;;;;56.84;6.17;98503.75;10451268;28;20475;-79
2023/09/06 07:13:38;;;;;;;3.42;2.28;;;;;;;57.32;4.86;98501.28;10448185;28;20045;-78
2023/09/06 07:19:00;;;;;;;5.53;2.15;;;;;;;57.54;4.91;98509.38;10440535;28;20139;-75
2023/09/06 07:24:21;;;;;;;2.80;1.95;;;;;;;57.51;4.32;98520.22;10428235;28;20045;-75
2023/09/06 07:29:42;;;;;;;3.42;1.98;;;;;;;56.79;4.81;98515.53;10431227;28;20037;-75
2023/09/06 07:35:03;;;;;;;6.50;2.88;;;;;;;57.98;3.94;98526.84;10426324;28;20086;-75
2023/09/06 07:40:24;;;;;;;4.13;2.65;;;;;;;57.61;5.00;98516.75;10412046;28;20052;-76
2023/09/06 07:45:45;;;;;;;4.32;2.13;;;;;;;57.83;4.82;98512.81;10407562;28;20060;-75
2023/09/06 07:51:06;;;;;;;3.22;2.40;;;;;;;57.21;4.80;98518.38;10395563;28;20527;-75
2023/09/06 07:56:27;;;;;;;3.95;2.20;;;;;;;57.51;4.22;98511.22;10424567;28;20041;-74
2023/09/06 08:01:49;;;;;;;2.92;2.05;;;;;;;58.72;4.29;98516.63;10395987;28;20091;-76
2023/09/06 08:07:11;;;;;;;1.98;1.75;;;;;;;59.05;3.67;98518.72;10409416;28;20163;-76
2023/09/06 08:12:32;;;;;;;5.35;2.00;;;;;;;59.45;3.78;98528.09;10415167;28;20502;-75
2023/09/06 08:17:53;;;;;;;5.20;2.20;;;;;;;58.66;3.96;98520.31;10413522;28;20037;-76
2023/09/06 08:23:15;;;;;;;4.35;2.45;;;;;;;59.01;3.25;98532.63;10408706;28;20041;-77
2023/09/06 08:28:36;;;;;;;3.88;2.90;;;;;;;59.54;3.32;98526.16;10408926;28;20411;-75
2023/09/06 08:33:57;;;;;;;5.82;2.70;;;;;;;59.04;3.61;98530.06;10394970;28;20049;-75
2023/09/06 08:39:18;;;;;;;6.93;3.17;;;;;;;59.28;3.38;98524.09;10400450;28;20068;-75
2023/09/06 08:44:39;;;;;;;3.20;2.88;;;;;;;59.62;3.70;98520.78;10408337;28;20049;-75
2023/09/06 08:50:00;;;;;;;5.88;3.40;;;;;;;59.36;3.30;98521.69;10409423;28;20064;-76
2023/09/06 08:55:21;;;;;;;3.75;3.42;;;;;;;59.76;3.59;98528.06;10360701;28;20046;-75
2023/09/06 09:00:42;;;;;;;7.70;3.75;;;;;;;60.42;3.07;98542.34;10401391;28;20396;-77
2023/09/06 09:06:07;;;;;;;;;;;;;;;59.42;3.34;98530.00;10388298;28;20054;-76
2023/09/06 09:11:28;;;;;;;4.80;3.83;;;;;;;58.57;4.11;98526.63;10388143;28;19921;-76
2023/09/06 09:16:59;;;;;;;5.45;4.47;;;;;;;58.64;3.40;98526.59;10364968;28;20042;-76
2023/09/06 09:22:22;;;;;;;5.10;4.40;;;;;;;57.36;4.70;98527.84;10373493;28;20100;-76
2023/09/06 09:27:46;;;;;;;5.50;4.03;;;;;;;56.11;5.66;98528.19;10386424;28;20048;-77
2023/09/06 09:33:07;;;;;;;4.55;3.92;;;;;;;54.96;5.68;98529.78;10395939;28;20398;-76
2023/09/06 09:38:28;;;;;;;4.63;3.60;;;;;;;55.19;5.94;98534.16;10413881;28;20123;-76
2023/09/06 09:43:50;;;;;;;3.40;3.08;;;;;;;54.27;6.24;98524.84;10413940;28;20118;-76
2023/09/06 09:49:12;;;;;;;3.67;3.13;;;;;;;54.92;5.68;98515.25;10427072;28;20041;-76
2023/09/06 09:54:33;;;;;;;3.75;2.65;;;;;;;53.77;6.12;98515.63;10427331;28;20364;-77
2023/09/06 09:59:56;;;;;;;5.28;2.53;;;;;;;53.58;6.26;98513.72;10368952;28;20483;-77
2023/09/06 10:05:17;;;;;;;2.97;2.42;;;;;;;53.97;6.10;98505.38;10372157;28;20058;-75
2023/09/06 10:10:39;;;;;;;4.13;2.40;;;;;;;55.00;6.04;98499.44;10385947;28;20045;-75
2023/09/06 10:16:00;;;;;;;6.10;2.60;;;;;;;55.41;5.62;98507.91;10363040;28;20048;-76
2023/09/06 10:21:21;;;;;;;5.28;2.30;;;;;;;54.43;5.95;98502.28;10384896;28;20049;-76
2023/09/06 10:26:43;;;;;;;2.20;2.05;;;;;;;53.99;6.17;98493.22;10369900;28;20053;-75
2023/09/06 10:32:04;;;;;;;3.55;2.00;;;;;;;54.62;5.68;98483.19;10377093;28;20033;-76
2023/09/06 10:38:00;;;;;;;7.55;2.00;;;;;;;53.62;6.65;98483.47;10392098;28;20041;-75
2023/09/06 10:44:03;;;;;;;3.92;1.70;;;;;;;53.16;6.57;98475.19;10396175;28;20037;-76
2023/09/06 10:49:25;;;;;;;2.47;1.50;;;;;;;53.15;6.84;98473.78;10408771;28;20091;-76
2023/09/06 10:54:52;;;;;;;2.90;1.40;;;;;;;52.32;6.58;98479.31;10391865;28;20041;-76
2023/09/06 11:00:18;;;;;;;1.98;1.20;;;;;;;52.09;7.07;98471.03;10390445;28;20033;-77
2023/09/06 11:05:42;;;;;;;2.55;1.30;;;;;;;52.18;7.03;98468.72;10423335;28;20140;-76
2023/09/06 11:11:06;;;;;;;2.45;1.05;;;;;;;51.08;7.46;98468.88;10398925;28;20096;-77
2023/09/06 11:16:28;;;;;;;3.30;1.30;;;;;;;51.64;7.19;98463.19;10394492;28;20045;-76
2023/09/06 11:22:03;;;;;;;4.05;1.33;;;;;;;52.41;6.72;98461.41;10394927;28;20112;-76
2023/09/06 11:27:29;;;;;;;2.15;1.08;;;;;;;49.85;8.15;98463.56;10412116;28;20061;-75
2023/09/06 11:32:51;;;;;;;2.05;1.00;;;;;;;50.09;8.14;98455.66;10409169;28;20045;-76
2023/09/06 11:38:12;;;;;;;2.00;1.20;;;;;;;50.03;7.93;98456.13;10407510;28;20485;-77
2023/09/06 11:43:33;;;;;;;2.97;1.60;;;;;;;48.98;7.27;98451.19;10407470;28;20120;-76
2023/09/06 11:48:54;;;;;;;4.00;1.35;;;;;;;41.45;13.13;98456.31;10408760;28;20038;-76
2023/09/06 11:54:16;;;;;;;4.55;1.73;;;;;;;36.94;17.14;98448.53;10422256;28;20037;-76
2023/09/06 11:59:38;;;;;;;5.07;2.15;;;;;;;34.81;19.13;98451.09;10410399;28;20521;-76
2023/09/06 12:05:00;;;;;;;2.88;1.58;;;;;;;34.05;20.59;98450.91;10422293;28;20060;-76
2023/09/06 12:10:22;;;;;;;3.28;2.00;;;;;;;33.16;22.15;98461.47;10396067;28;20408;-77
2023/09/06 12:15:44;;;;;;;3.28;1.63;;;;;;;32.07;24.38;98455.22;10415902;28;20476;-73
2023/09/06 12:21:06;;;;;;;5.13;1.92;;;;;;;31.66;24.63;98449.69;10388924;28;20041;-72
2023/09/06 12:26:27;;;;;;;4.25;1.75;;;;;;;31.18;24.79;98439.06;10389070;28;20117;-73
2023/09/06 12:31:49;;;;;;;3.28;1.83;;;;;;;30.63;25.92;98442.06;10375052;28;20044;-73
2023/09/06 12:37:10;;;;;;;3.80;2.00;;;;;;;30.90;25.99;98431.94;10375612;28;20065;-73
2023/09/06 12:42:31;;;;;;;3.28;1.83;;;;;;;31.28;25.69;98427.50;10401747;28;20124;-73
2023/09/06 12:47:53;;;;;;;2.40;1.83;;;;;;;30.70;26.25;98426.94;10416783;28;20041;-73
2023/09/06 12:53:14;;;;;;;4.53;1.88;;;;;;;30.77;26.49;98421.88;10388085;28;20168;-73
2023/09/06 12:58:35;;;;;;;2.77;2.00;;;;;;;30.51;27.71;98407.50;10413698;28;20042;-73
2023/09/06 13:03:56;;;;;;;4.87;2.00;;;;;;;30.43;27.29;98411.13;10396093;28;20115;-73
2023/09/06 13:09:17;;;;;;;6.15;2.00;;;;;;;30.09;28.12;98412.56;10393114;28;20095;-73
2023/09/06 13:14:39;;;;;;;4.40;2.20;;;;;;;29.31;28.72;98402.28;10427061;28;20125;-73
2023/09/06 13:19:59;;;;;;;4.43;1.98;;;;;;;28.94;29.24;98404.28;10401631;28;20037;-73
2023/09/06 13:25:20;;;;;;;4.00;2.20;;;;;;;28.74;30.04;98396.25;10402907;28;20554;-73
2023/09/06 13:30:41;;;;;;;4.93;2.10;;;;;;;28.67;30.43;98397.69;10422312;28;20056;-73
2023/09/06 13:36:04;;;;;;;4.32;1.98;;;;;;;28.62;30.81;98390.44;10425368;28;20133;-73
2023/09/06 13:41:26;;;;;;;3.90;2.17;;;;;;;28.78;30.51;98396.28;10405134;28;20044;-73
2023/09/06 13:46:49;;;;;;;5.97;2.10;;;;;;;28.70;30.55;98402.72;10416820;28;20052;-73
2023/09/06 13:52:10;;;;;;;2.08;1.88;;;;;;;28.54;30.68;98382.50;10393344;28;20033;-73
2023/09/06 13:57:35;;;;;;;4.55;2.10;;;;;;;28.58;30.58;98382.53;10405238;28;20057;-73
2023/09/06 14:02:57;;;;;;;2.67;2.30;;;;;;;28.70;30.48;98381.88;10417477;28;20060;-73
2023/09/06 14:08:20;;;;;;;4.70;2.15;;;;;;;28.32;31.04;98385.22;10427196;28;20076;-73
2023/09/06 14:13:41;;;;;;;4.50;2.00;;;;;;;28.06;31.28;98385.72;10399534;28;20041;-73
2023/09/06 14:19:03;;;;;;;3.47;1.77;;;;;;;28.23;31.09;98378.69;10432287;28;20041;-73
2023/09/06 14:24:25;;;;;;;3.35;1.92;;;;;;;28.06;31.41;98374.97;10421470;28;20041;-73
2023/09/06 14:29:46;;;;;;;4.32;1.80;;;;;;;28.09;31.03;98373.56;10444756;28;20044;-73
2023/09/06 14:35:07;;;;;;;4.65;1.90;;;;;;;28.08;31.09;98366.38;10404939;28;20049;-73
2023/09/06 14:40:28;;;;;;;6.70;1.77;;;;;;;28.01;31.09;98370.63;10420440;28;20041;-73
2023/09/06 14:45:49;;;;;;;6.05;2.50;;;;;;;27.74;31.58;98374.69;10392866;28;20376;-74
2023/09/06 14:51:09;;;;;;;3.63;2.05;;;;;;;27.46;32.29;98361.47;10406409;28;20108;-73
2023/09/06 14:56:30;;;;;;;5.15;1.90;;;;;;;27.47;32.21;98368.66;10430777;28;20105;-73
2023/09/06 15:01:57;;;;;;;4.72;1.90;;;;;;;27.49;32.11;98370.81;10416843;28;20045;-73
2023/09/06 15:07:18;;;;;;;1.88;1.58;;;;;;;27.39;32.29;98366.44;10466582;28;20040;-73
2023/09/06 15:12:39;;;;;;;5.78;2.05;;;;;;;27.32;32.64;98358.47;10477955;28;20045;-73
2023/09/06 15:18:01;;;;;;;5.22;2.20;;;;;;;27.08;32.82;98371.09;10487800;28;20056;-71
2023/09/06 15:23:22;;;;;;;4.93;1.85;;;;;;;26.92;33.14;98370.88;10460054;28;20052;-71
2023/09/06 15:28:44;;;;;;;3.25;1.80;;;;;;;26.59;33.66;98369.72;10473437;28;20071;-72
2023/09/06 15:34:05;;;;;;;4.18;1.77;;;;;;;26.44;33.67;98371.69;10473834;28;20407;-71
2023/09/06 15:39:26;;;;;;;2.90;1.45;;;;;;;26.40;34.13;98371.59;10472823;28;20043;-71
2023/09/06 15:44:46;;;;;;;4.07;1.77;;;;;;;26.32;34.16;98377.16;10487049;28;20138;-71
2023/09/06 15:50:08;;;;;;;3.97;1.85;;;;;;;26.22;34.14;98379.88;10486373;28;20059;-68
2023/09/06 15:55:30;;;;;;;3.22;2.15;;;;;;;26.14;34.22;98382.59;10472699;28;20063;-68
2023/09/06 16:00:52;;;;;;;4.82;1.80;;;;;;;25.98;34.91;98365.19;10500886;28;20502;-70
2023/09/06 16:06:13;;;;;;;4.43;2.03;;;;;;;25.85;34.75;98370.69;10485735;28;20041;-68
2023/09/06 16:11:34;;;;;;;4.47;2.20;;;;;;;25.79;34.59;98373.47;10485863;28;20037;-67
2023/09/06 16:16:55;;;;;;;3.30;1.80;;;;;;;25.64;34.88;98369.59;10485235;28;20040;-67
2023/09/06 16:22:19;;;;;;;4.55;1.90;;;;;;;25.57;35.24;98373.03;10485504;28;20490;-67
2023/09/06 16:27:40;;;;;;;4.88;1.92;;;;;;;25.48;35.18;98374.28;10499412;28;20047;-67
2023/09/06 16:33:01;;;;;;;2.60;1.50;;;;;;;25.37;35.27;98368.38;10484843;28;20045;-66
2023/09/06 16:38:22;;;;;;;4.50;1.98;;;;;;;25.27;35.73;98373.91;10499679;28;20044;-67
2023/09/06 16:43:43;;;;;;;4.05;2.38;;;;;;;25.15;35.71;98375.81;10470290;28;20049;-71
2023/09/06 16:49:05;;;;;;;3.70;2.05;;;;;;;24.99;35.85;98382.59;10456459;28;20043;-68
2023/09/06 16:54:26;;;;;;;4.85;2.03;;;;;;;24.85;36.18;98385.19;10470517;28;20044;-66
2023/09/06 16:59:47;;;;;;;3.97;1.92;;;;;;;24.68;36.27;98383.38;10484137;28;20048;-68
2023/09/06 17:05:08;;;;;;;3.75;1.70;;;;;;;24.50;36.54;98378.72;10483483;28;20447;-68
2023/09/06 17:10:29;;;;;;;4.93;1.90;;;;;;;24.34;36.75;98383.34;10483426;28;20052;-67
2023/09/06 17:15:50;;;;;;;6.57;2.00;;;;;;;24.17;36.91;98385.78;10447620;28;20087;-67
2023/09/06 17:21:11;;;;;;;5.30;1.83;;;;;;;24.01;37.05;98381.78;10400486;28;20099;-67
2023/09/06 17:26:35;;;;;;;5.75;1.95;;;;;;;23.84;37.35;98380.69;10400606;28;20037;-67
2023/09/06 17:31:56;;;;;;;3.63;1.65;;;;;;;23.63;37.47;98383.00;10415180;28;20487;-67
2023/09/06 17:37:17;;;;;;;3.67;2.30;;;;;;;23.46;37.63;98380.38;10400461;28;20042;-68
2023/09/06 17:42:38;;;;;;;4.78;2.10;;;;;;;23.26;38.23;98397.63;10372492;28;20046;-68
2023/09/06 17:48:09;;;;;;;3.30;2.00;;;;;;;23.07;38.88;98393.56;10400065;28;20041;-69
2023/09/06 17:53:30;;;;;;;3.58;1.90;;;;;;;22.95;38.94;98396.75;10401542;28;20049;-69
2023/09/06 17:58:53;;;;;;;6.78;1.83;;;;;;;22.79;39.00;98401.97;10399578;28;20491;-65
2023/09/06 18:04:15;;;;;;;6.82;1.80;;;;;;;22.67;40.04;98399.47;10400271;28;20089;-68
2023/09/06 18:09:36;;;;;;;4.40;2.00;;;;;;;22.53;39.88;98405.47;10414579;28;20103;-68
2023/09/06 18:14:57;;;;;;;4.80;1.90;;;;;;;22.43;40.25;98404.41;10414188;28;20081;-68
2023/09/06 18:20:22;;;;;;;6.18;2.38;;;;;;;22.28;40.87;98408.91;10399503;28;20041;-68
2023/09/06 18:25:42;;;;;;;4.97;2.15;;;;;;;22.08;41.00;98408.28;10413981;28;20073;-68
2023/09/06 18:31:03;;;;;;;5.90;2.20;;;;;;;21.92;41.64;98409.19;10414062;28;20073;-66
2023/09/06 18:36:24;;;;;;;4.15;1.77;;;;;;;21.82;41.89;98413.78;10398935;28;20099;-67
2023/09/06 18:41:45;;;;;;;6.15;2.00;;;;;;;21.68;42.17;98414.75;10413591;28;20659;-66
2023/09/06 18:47:08;;;;;;;6.45;1.83;;;;;;;21.57;42.54;98420.75;10413689;28;20167;-66
2023/09/06 18:52:30;;;;;;;6.45;2.08;;;;;;;21.45;42.47;98417.47;10418203;28;20045;-67
2023/09/06 18:57:51;;;;;;;4.45;2.20;;;;;;;21.41;43.08;98427.28;10406380;28;20480;-69
2023/09/06 19:03:25;;;;;;;2.92;2.05;;;;;;;21.26;43.05;98428.19;10408032;28;20069;-66
2023/09/06 19:08:46;;;;;;;5.75;2.30;;;;;;;21.10;43.28;98428.28;10420643;28;20076;-67
2023/09/06 19:14:07;;;;;;;7.18;2.05;;;;;;;21.01;43.99;98431.47;10445441;28;20041;-67
2023/09/06 19:19:32;;;;;;;4.28;2.28;;;;;;;20.93;43.94;98431.16;10461087;28;20080;-67
2023/09/06 19:24:54;;;;;;;3.85;1.85;;;;;;;20.84;44.11;98428.03;10461683;28;20531;-65
2023/09/06 19:30:15;;;;;;;4.30;3.03;;;;;;;20.75;44.49;98429.13;10460143;28;20135;-67
2023/09/06 19:35:35;;;;;;;5.90;3.22;;;;;;;20.64;45.11;98424.41;10445843;28;20118;-66
2023/09/06 19:40:57;;;;;;;6.13;3.05;;;;;;;20.59;45.18;98422.81;10441659;28;20068;-67
2023/09/06 19:46:18;;;;;;;4.75;2.35;;;;;;;20.47;45.39;98420.22;10431332;28;20069;-66
2023/09/06 19:51:40;;;;;;;5.10;2.60;;;;;;;20.43;46.07;98427.84;10431795;28;20060;-66
2023/09/06 19:57:03;;;;;;;4.63;2.90;;;;;;;20.40;46.14;98429.84;10459025;28;20079;-67
2023/09/06 20:02:24;;;;;;;7.63;3.05;;;;;;;20.35;46.32;98428.22;10437897;28;20080;-67
2023/09/06 20:07:46;;;;;;;5.80;2.90;;;;;;;20.31;46.48;98433.72;10459846;28;20063;-68
2023/09/06 20:13:07;;;;;;;9.63;3.13;;;;;;;20.30;46.96;98435.84;10445028;28;20394;-67
2023/09/06 20:18:29;;;;;;;5.25;2.70;;;;;;;20.28;47.02;98441.44;10430739;28;20065;-67
2023/09/06 20:23:51;;;;;;;4.60;3.07;;;;;;;20.21;47.04;98436.16;10424777;28;20038;-67
2023/09/06 20:29:15;;;;;;;4.20;2.92;;;;;;;20.11;47.48;98436.47;10440191;28;20033;-67
2023/09/06 20:34:35;;;;;;;7.88;3.08;;;;;;;20.06;47.89;98437.66;10424297;28;20534;-67
2023/09/06 20:39:56;;;;;;;4.55;3.08;;;;;;;20.04;47.87;98440.41;10423697;28;20491;-67
2023/09/06 20:45:17;;;;;;;6.05;2.63;;;;;;;19.95;48.06;98444.28;10437228;28;20380;-67
2023/09/06 20:50:38;;;;;;;4.88;2.42;;;;;;;19.89;48.60;98446.88;10437305;28;20033;-67
2023/09/06 20:55:59;;;;;;;7.45;3.20;;;;;;;19.88;48.87;98445.41;10408420;28;20087;-67
2023/09/06 21:01:21;;;;;;;6.63;3.10;;;;;;;19.79;48.86;98444.34;10414275;28;20296;-68
2023/09/06 21:06:42;;;;;;;6.72;2.88;;;;;;;19.71;49.24;98439.06;10400542;28;20068;-66
2023/09/06 21:12:03;;;;;;;5.85;2.92;;;;;;;19.63;49.23;98430.22;10386677;28;20065;-67
2023/09/06 21:17:24;;;;;;;5.85;2.72;;;;;;;19.57;49.78;98441.28;10412410;28;20388;-67
2023/09/06 21:22:45;;;;;;;5.95;3.65;;;;;;;19.57;49.84;98451.88;10397349;28;20123;-66
2023/09/06 21:28:06;;;;;;;9.32;3.25;;;;;;;19.57;50.12;98446.94;10383675;28;20041;-66
2023/09/06 21:33:28;;;;;;;6.25;2.95;;;;;;;19.51;50.18;98443.09;10388292;28;20045;-66
2023/09/06 21:38:49;;;;;;;8.00;3.35;;;;;;;19.41;50.13;98451.88;10400338;28;20132;-67
2023/09/06 21:44:10;;;;;;;4.70;2.90;;;;;;;19.30;50.62;98455.63;10384408;28;20197;-66
2023/09/06 21:49:31;;;;;;;5.60;3.20;;;;;;;19.19;51.11;98456.53;10399416;28;20108;-67
2023/09/06 21:54:52;;;;;;;6.85;3.40;;;;;;;19.06;51.32;98452.44;10398072;28;20038;-67
2023/09/06 22:00:20;;;;;;;4.38;3.10;;;;;;;18.93;51.64;98453.25;10411516;28;20479;-67
2023/09/06 22:05:59;;;;;;;5.75;3.30;;;;;;;18.83;51.96;98454.25;10411610;28;20077;-67
2023/09/06 22:11:39;;;;;;;5.97;3.22;;;;;;;18.79;52.23;98448.41;10423112;28;20113;-67
2023/09/06 22:17:04;;;;;;;5.72;3.33;;;;;;;18.75;52.49;98450.31;10405358;28;20069;-67
2023/09/06 22:22:25;;;;;;;7.32;3.40;;;;;;;18.71;52.89;98452.94;10391409;28;20061;-66
2023/09/06 22:27:46;;;;;;;9.30;3.40;;;;;;;18.67;52.99;98447.84;10409689;28;20472;-67
2023/09/06 22:33:08;;;;;;;8.95;3.22;;;;;;;18.63;53.22;98455.38;10411347;28;20117;-67
2023/09/06 22:38:28;;;;;;;4.82;2.90;;;;;;;18.57;53.38;98448.06;10426507;28;20061;-67
2023/09/06 22:43:49;;;;;;;6.70;3.00;;;;;;;18.54;53.04;98457.81;10406392;28;20492;-67
2023/09/06 22:49:10;;;;;;;5.05;2.80;;;;;;;18.47;53.37;98464.53;10406847;28;20046;-66
2023/09/06 22:54:31;;;;;;;4.70;2.75;;;;;;;18.42;53.78;98473.44;10393100;28;20180;-67
2023/09/06 22:59:54;;;;;;;7.28;2.90;;;;;;;18.35;53.95;98480.91;10392862;28;20052;-66
2023/09/06 23:05:15;;;;;;;6.35;2.90;;;;;;;18.24;54.43;98481.78;10406072;28;20077;-67
2023/09/06 23:10:38;;;;;;;4.15;2.63;;;;;;;18.19;54.65;98478.03;10406307;28;20069;-66
2023/09/06 23:15:59;;;;;;;4.30;2.80;;;;;;;18.15;54.80;98474.28;10406627;28;20081;-66
2023/09/06 23:21:22;;;;;;;4.65;2.97;;;;;;;18.08;54.89;98476.06;10392169;28;20069;-66
2023/09/06 23:26:46;;;;;;;6.63;2.92;;;;;;;18.01;55.16;98483.50;10405831;28;20125;-66
2023/09/06 23:32:09;;;;;;;3.13;2.67;;;;;;;17.93;55.27;98488.00;10405835;28;20456;-66
2023/09/06 23:37:30;;;;;;;6.57;2.50;;;;;;;17.85;55.34;98481.94;10390608;28;20072;-67
2023/09/06 23:42:53;;;;;;;6.20;2.90;;;;;;;17.81;55.74;98488.13;10405020;28;20065;-66
2023/09/06 23:48:14;;;;;;;6.47;3.33;;;;;;;17.76;55.89;98485.72;10391665;28;20073;-66
2023/09/06 23:53:35;;;;;;;3.85;2.80;;;;;;;17.68;55.82;98480.38;10398364;28;20549;-67
2023/09/06 23:58:56;;;;;;;4.82;2.95;;;;;;;17.58;56.33;98482.69;10434330;28;20072;-67
